N6242F KTIW-KPDX
Flight info
| Callsign | N6242F |
|---|---|
| Flight time | 1h 7m |
| Altitude | 7000 |
| Route | NARRO1 OLM V287 BTG |
| Aircraft | C172/L-VGD/C |
Departure
| Time | 2026-05-07 03:19 |
|---|---|
| Airport | Tacoma Narrows Airport (KTIW) |
Arrival
| Time | 2026-05-07 04:27 |
|---|---|
| Airport | Portland International Airport (KPDX) |
| Time | Latitude | Longitude | Altitude | Speed | Heading |
|---|---|---|---|---|---|
| 2026-05-07 02:55 | 47.26878 | -122.57539 | 294 ft | 0 kts | 187° |
| 2026-05-07 03:10 | 47.26869 | -122.57551 | 295 ft | 0 kts | 271° |
| 2026-05-07 03:10 | 47.26885 | -122.57596 | 295 ft | 10 kts | 285° |
| 2026-05-07 03:10 | 47.26920 | -122.57646 | 295 ft | 8 kts | 356° |
| 2026-05-07 03:10 | 47.26989 | -122.57635 | 297 ft | 11 kts | 6° |
| 2026-05-07 03:11 | 47.27075 | -122.57620 | 296 ft | 14 kts | 7° |
| 2026-05-07 03:11 | 47.27184 | -122.57601 | 295 ft | 17 kts | 8° |
| 2026-05-07 03:11 | 47.27301 | -122.57580 | 296 ft | 17 kts | 6° |
| 2026-05-07 03:11 | 47.27416 | -122.57557 | 295 ft | 16 kts | 14° |
| 2026-05-07 03:12 | 47.27477 | -122.57509 | 294 ft | 6 kts | 311° |
| 2026-05-07 03:12 | 47.27475 | -122.57522 | 295 ft | 1 kts | 189° |
| 2026-05-07 03:12 | 47.27473 | -122.57522 | 294 ft | 0 kts | 184° |
| 2026-05-07 03:17 | 47.27461 | -122.57529 | 293 ft | 7 kts | 224° |
| 2026-05-07 03:17 | 47.27459 | -122.57580 | 295 ft | 0 kts | 278° |
| 2026-05-07 03:18 | 47.27460 | -122.57597 | 293 ft | 8 kts | 279° |
| 2026-05-07 03:18 | 47.27450 | -122.57693 | 293 ft | 7 kts | 193° |
| 2026-05-07 03:18 | 47.27366 | -122.57710 | 295 ft | 28 kts | 186° |
| 2026-05-07 03:19 | 47.27021 | -122.57768 | 304 ft | 68 kts | 188° |
| 2026-05-07 03:19 | 47.26498 | -122.57852 | 423 ft | 80 kts | 191° |
| 2026-05-07 03:19 | 47.25942 | -122.57922 | 635 ft | 81 kts | 190° |
| 2026-05-07 03:19 | 47.25388 | -122.57943 | 906 ft | 77 kts | 184° |
| 2026-05-07 03:20 | 47.24816 | -122.57899 | 1077 ft | 84 kts | 181° |
| 2026-05-07 03:20 | 47.24290 | -122.57974 | 1363 ft | 72 kts | 225° |
| 2026-05-07 03:20 | 47.24131 | -122.58654 | 1554 ft | 76 kts | 266° |
| 2026-05-07 03:20 | 47.24107 | -122.59415 | 1761 ft | 74 kts | 264° |
| 2026-05-07 03:21 | 47.24086 | -122.60184 | 1934 ft | 76 kts | 264° |
| 2026-05-07 03:21 | 47.24061 | -122.61032 | 2009 ft | 91 kts | 265° |
| 2026-05-07 03:21 | 47.24025 | -122.61969 | 2009 ft | 94 kts | 264° |
| 2026-05-07 03:21 | 47.23977 | -122.62966 | 2015 ft | 102 kts | 265° |
| 2026-05-07 03:22 | 47.23933 | -122.64031 | 2006 ft | 108 kts | 265° |
| 2026-05-07 03:22 | 47.23894 | -122.65141 | 2006 ft | 109 kts | 265° |
| 2026-05-07 03:22 | 47.23833 | -122.66240 | 2000 ft | 107 kts | 254° |
| 2026-05-07 03:22 | 47.23374 | -122.67026 | 1993 ft | 100 kts | 217° |
| 2026-05-07 03:23 | 47.22784 | -122.67518 | 1990 ft | 95 kts | 214° |
| 2026-05-07 03:23 | 47.22227 | -122.67986 | 2223 ft | 83 kts | 216° |
| 2026-05-07 03:23 | 47.21757 | -122.68385 | 2437 ft | 77 kts | 216° |
| 2026-05-07 03:23 | 47.21289 | -122.68795 | 2604 ft | 79 kts | 216° |
| 2026-05-07 03:24 | 47.20817 | -122.69212 | 2773 ft | 79 kts | 216° |
| 2026-05-07 03:24 | 47.20349 | -122.69625 | 2951 ft | 79 kts | 217° |
| 2026-05-07 03:24 | 47.19868 | -122.70052 | 3130 ft | 81 kts | 217° |
| 2026-05-07 03:24 | 47.19388 | -122.70478 | 3329 ft | 80 kts | 216° |
| 2026-05-07 03:25 | 47.18906 | -122.70906 | 3493 ft | 81 kts | 216° |
| 2026-05-07 03:25 | 47.18420 | -122.71338 | 3666 ft | 82 kts | 216° |
| 2026-05-07 03:25 | 47.17942 | -122.71763 | 3828 ft | 83 kts | 218° |
| 2026-05-07 03:25 | 47.17449 | -122.72201 | 3982 ft | 83 kts | 217° |
| 2026-05-07 03:26 | 47.16950 | -122.72645 | 4112 ft | 84 kts | 218° |
| 2026-05-07 03:26 | 47.16443 | -122.73097 | 4267 ft | 85 kts | 217° |
| 2026-05-07 03:26 | 47.15936 | -122.73548 | 4415 ft | 86 kts | 218° |
| 2026-05-07 03:26 | 47.15419 | -122.74008 | 4580 ft | 87 kts | 220° |
| 2026-05-07 03:27 | 47.14902 | -122.74468 | 4744 ft | 87 kts | 219° |
| 2026-05-07 03:27 | 47.14387 | -122.74925 | 4906 ft | 87 kts | 219° |
| 2026-05-07 03:27 | 47.13864 | -122.75391 | 5049 ft | 87 kts | 220° |
| 2026-05-07 03:27 | 47.13348 | -122.75848 | 5188 ft | 87 kts | 219° |
| 2026-05-07 03:28 | 47.12822 | -122.76315 | 5308 ft | 88 kts | 219° |
| 2026-05-07 03:28 | 47.12296 | -122.76782 | 5444 ft | 88 kts | 219° |
| 2026-05-07 03:28 | 47.11776 | -122.77243 | 5577 ft | 87 kts | 220° |
| 2026-05-07 03:28 | 47.11250 | -122.77711 | 5707 ft | 89 kts | 220° |
| 2026-05-07 03:29 | 47.10722 | -122.78178 | 5854 ft | 89 kts | 222° |
| 2026-05-07 03:29 | 47.10194 | -122.78647 | 5989 ft | 89 kts | 222° |
| 2026-05-07 03:29 | 47.09671 | -122.79110 | 6116 ft | 89 kts | 223° |
| 2026-05-07 03:29 | 47.09136 | -122.79584 | 6277 ft | 89 kts | 223° |
| 2026-05-07 03:30 | 47.08612 | -122.80049 | 6410 ft | 89 kts | 224° |
| 2026-05-07 03:30 | 47.08077 | -122.80523 | 6535 ft | 90 kts | 224° |
| 2026-05-07 03:30 | 47.07542 | -122.80997 | 6657 ft | 90 kts | 224° |
| 2026-05-07 03:30 | 47.07011 | -122.81466 | 6778 ft | 89 kts | 224° |
| 2026-05-07 03:31 | 47.06482 | -122.81935 | 6886 ft | 89 kts | 223° |
| 2026-05-07 03:31 | 47.05950 | -122.82406 | 6992 ft | 89 kts | 224° |
| 2026-05-07 03:31 | 47.05393 | -122.82906 | 7013 ft | 99 kts | 223° |
| 2026-05-07 03:31 | 47.04784 | -122.83451 | 7021 ft | 105 kts | 222° |
| 2026-05-07 03:32 | 47.04155 | -122.84008 | 7021 ft | 106 kts | 222° |
| 2026-05-07 03:32 | 47.03522 | -122.84569 | 7019 ft | 107 kts | 222° |
| 2026-05-07 03:32 | 47.02883 | -122.85134 | 7017 ft | 108 kts | 221° |
| 2026-05-07 03:32 | 47.02236 | -122.85706 | 7020 ft | 109 kts | 221° |
| 2026-05-07 03:33 | 47.01585 | -122.86280 | 7018 ft | 109 kts | 221° |
| 2026-05-07 03:33 | 47.00932 | -122.86856 | 7021 ft | 109 kts | 221° |
| 2026-05-07 03:33 | 47.00276 | -122.87436 | 7004 ft | 111 kts | 221° |
| 2026-05-07 03:33 | 46.99620 | -122.88014 | 7008 ft | 110 kts | 222° |
| 2026-05-07 03:34 | 46.98968 | -122.88588 | 7006 ft | 109 kts | 222° |
| 2026-05-07 03:34 | 46.98319 | -122.89161 | 7003 ft | 108 kts | 221° |
| 2026-05-07 03:34 | 46.97673 | -122.89729 | 7003 ft | 108 kts | 221° |
| 2026-05-07 03:34 | 46.96931 | -122.90072 | 6995 ft | 118 kts | 192° |
| 2026-05-07 03:35 | 46.96093 | -122.89905 | 6993 ft | 123 kts | 179° |
| 2026-05-07 03:35 | 46.95251 | -122.89685 | 6994 ft | 123 kts | 179° |
| 2026-05-07 03:35 | 46.94419 | -122.89469 | 6993 ft | 123 kts | 179° |
| 2026-05-07 03:35 | 46.93576 | -122.89251 | 6995 ft | 123 kts | 179° |
| 2026-05-07 03:36 | 46.92731 | -122.89032 | 6992 ft | 123 kts | 179° |
| 2026-05-07 03:36 | 46.91891 | -122.88813 | 6991 ft | 122 kts | 179° |
| 2026-05-07 03:36 | 46.91051 | -122.88597 | 6992 ft | 123 kts | 179° |
| 2026-05-07 03:36 | 46.90204 | -122.88378 | 6990 ft | 123 kts | 179° |
| 2026-05-07 03:37 | 46.89361 | -122.88159 | 6993 ft | 123 kts | 179° |
| 2026-05-07 03:37 | 46.88518 | -122.87942 | 6995 ft | 123 kts | 179° |
| 2026-05-07 03:37 | 46.87672 | -122.87723 | 6997 ft | 124 kts | 179° |
| 2026-05-07 03:37 | 46.86822 | -122.87504 | 6999 ft | 125 kts | 179° |
| 2026-05-07 03:38 | 46.85969 | -122.87284 | 6996 ft | 125 kts | 178° |
| 2026-05-07 03:38 | 46.85127 | -122.87067 | 6997 ft | 124 kts | 179° |
| 2026-05-07 03:38 | 46.84277 | -122.86847 | 6998 ft | 124 kts | 178° |
| 2026-05-07 03:38 | 46.83428 | -122.86627 | 6995 ft | 124 kts | 178° |
| 2026-05-07 03:39 | 46.82577 | -122.86408 | 6997 ft | 124 kts | 179° |
| 2026-05-07 03:39 | 46.81726 | -122.86188 | 7000 ft | 124 kts | 179° |
| 2026-05-07 03:39 | 46.80874 | -122.85969 | 7018 ft | 124 kts | 179° |
| 2026-05-07 03:39 | 46.80019 | -122.85749 | 7020 ft | 126 kts | 179° |
| 2026-05-07 03:40 | 46.79154 | -122.85526 | 7022 ft | 126 kts | 179° |
| 2026-05-07 03:40 | 46.78294 | -122.85304 | 7021 ft | 125 kts | 179° |
| 2026-05-07 03:40 | 46.77438 | -122.85083 | 7023 ft | 125 kts | 178° |
| 2026-05-07 03:40 | 46.76586 | -122.84864 | 7023 ft | 124 kts | 179° |
| 2026-05-07 03:41 | 46.75740 | -122.84646 | 7022 ft | 123 kts | 179° |
| 2026-05-07 03:41 | 46.74895 | -122.84429 | 7017 ft | 123 kts | 179° |
| 2026-05-07 03:41 | 46.74048 | -122.84211 | 7017 ft | 124 kts | 179° |
| 2026-05-07 03:41 | 46.73198 | -122.83992 | 7014 ft | 124 kts | 179° |
| 2026-05-07 03:42 | 46.72354 | -122.83775 | 7018 ft | 123 kts | 179° |
| 2026-05-07 03:42 | 46.71506 | -122.83558 | 7020 ft | 124 kts | 179° |
| 2026-05-07 03:42 | 46.70658 | -122.83340 | 7017 ft | 124 kts | 179° |
| 2026-05-07 03:42 | 46.69808 | -122.83122 | 7017 ft | 123 kts | 179° |
| 2026-05-07 03:43 | 46.68960 | -122.82904 | 7003 ft | 125 kts | 179° |
| 2026-05-07 03:43 | 46.68107 | -122.82685 | 7007 ft | 124 kts | 179° |
| 2026-05-07 03:43 | 46.67252 | -122.82466 | 7003 ft | 125 kts | 179° |
| 2026-05-07 03:43 | 46.66396 | -122.82246 | 7003 ft | 124 kts | 178° |
| 2026-05-07 03:44 | 46.65545 | -122.82028 | 7005 ft | 124 kts | 178° |
| 2026-05-07 03:44 | 46.64697 | -122.81810 | 7001 ft | 124 kts | 178° |
| 2026-05-07 03:44 | 46.63851 | -122.81593 | 7003 ft | 123 kts | 178° |
| 2026-05-07 03:44 | 46.63005 | -122.81377 | 7000 ft | 123 kts | 178° |
| 2026-05-07 03:45 | 46.62175 | -122.81164 | 7004 ft | 123 kts | 178° |
| 2026-05-07 03:45 | 46.61334 | -122.80949 | 7000 ft | 123 kts | 179° |
| 2026-05-07 03:45 | 46.60488 | -122.80733 | 6998 ft | 124 kts | 178° |
| 2026-05-07 03:45 | 46.59641 | -122.80516 | 7000 ft | 124 kts | 178° |
| 2026-05-07 03:46 | 46.58792 | -122.80299 | 7002 ft | 124 kts | 178° |
| 2026-05-07 03:46 | 46.57944 | -122.80082 | 6999 ft | 123 kts | 178° |
| 2026-05-07 03:46 | 46.57098 | -122.79866 | 6996 ft | 124 kts | 178° |
| 2026-05-07 03:46 | 46.56248 | -122.79649 | 6998 ft | 124 kts | 178° |
| 2026-05-07 03:47 | 46.55397 | -122.79432 | 6998 ft | 124 kts | 178° |
| 2026-05-07 03:47 | 46.54547 | -122.79215 | 7003 ft | 124 kts | 178° |
| 2026-05-07 03:47 | 46.53697 | -122.78998 | 6995 ft | 123 kts | 178° |
| 2026-05-07 03:47 | 46.52855 | -122.78782 | 6997 ft | 123 kts | 178° |
| 2026-05-07 03:48 | 46.52010 | -122.78567 | 6991 ft | 123 kts | 178° |
| 2026-05-07 03:48 | 46.51166 | -122.78352 | 6992 ft | 123 kts | 178° |
| 2026-05-07 03:48 | 46.50322 | -122.78137 | 6991 ft | 123 kts | 178° |
| 2026-05-07 03:48 | 46.49480 | -122.77922 | 6990 ft | 123 kts | 178° |
| 2026-05-07 03:49 | 46.48637 | -122.77707 | 6988 ft | 123 kts | 178° |
| 2026-05-07 03:49 | 46.47794 | -122.77492 | 6991 ft | 123 kts | 178° |
| 2026-05-07 03:49 | 46.46953 | -122.77278 | 6988 ft | 122 kts | 178° |
| 2026-05-07 03:49 | 46.46117 | -122.77065 | 6991 ft | 122 kts | 178° |
| 2026-05-07 03:50 | 46.45279 | -122.76851 | 6987 ft | 122 kts | 178° |
| 2026-05-07 03:50 | 46.44438 | -122.76639 | 6985 ft | 123 kts | 178° |
| 2026-05-07 03:50 | 46.43595 | -122.76424 | 6985 ft | 123 kts | 178° |
| 2026-05-07 03:50 | 46.42761 | -122.76213 | 6988 ft | 124 kts | 178° |
| 2026-05-07 03:51 | 46.41916 | -122.75998 | 6984 ft | 123 kts | 178° |
| 2026-05-07 03:51 | 46.41075 | -122.75784 | 6985 ft | 123 kts | 178° |
| 2026-05-07 03:51 | 46.40234 | -122.75570 | 6980 ft | 122 kts | 178° |
| 2026-05-07 03:51 | 46.39403 | -122.75358 | 6982 ft | 121 kts | 178° |
| 2026-05-07 03:52 | 46.38564 | -122.75146 | 6984 ft | 123 kts | 178° |
| 2026-05-07 03:52 | 46.37718 | -122.74932 | 6986 ft | 124 kts | 178° |
| 2026-05-07 03:52 | 46.36867 | -122.74717 | 6987 ft | 125 kts | 179° |
| 2026-05-07 03:52 | 46.36011 | -122.74500 | 6990 ft | 125 kts | 178° |
| 2026-05-07 03:53 | 46.35151 | -122.74282 | 7001 ft | 126 kts | 178° |
| 2026-05-07 03:53 | 46.34289 | -122.74063 | 6994 ft | 126 kts | 178° |
| 2026-05-07 03:53 | 46.33428 | -122.73845 | 6992 ft | 125 kts | 178° |
| 2026-05-07 03:53 | 46.32573 | -122.73628 | 6993 ft | 124 kts | 178° |
| 2026-05-07 03:54 | 46.32010 | -122.73486 | 6995 ft | 124 kts | 178° |
| 2026-05-07 03:54 | 46.31157 | -122.73270 | 6991 ft | 124 kts | 178° |
| 2026-05-07 03:54 | 46.30308 | -122.73055 | 6994 ft | 124 kts | 178° |
| 2026-05-07 03:54 | 46.29454 | -122.72840 | 6994 ft | 125 kts | 178° |
| 2026-05-07 03:55 | 46.28602 | -122.72624 | 6994 ft | 123 kts | 178° |
| 2026-05-07 03:55 | 46.27760 | -122.72410 | 6998 ft | 123 kts | 178° |
| 2026-05-07 03:55 | 46.26916 | -122.72198 | 6991 ft | 124 kts | 178° |
| 2026-05-07 03:55 | 46.26065 | -122.71984 | 6999 ft | 124 kts | 178° |
| 2026-05-07 03:56 | 46.25211 | -122.71768 | 6998 ft | 125 kts | 178° |
| 2026-05-07 03:56 | 46.24357 | -122.71552 | 6997 ft | 124 kts | 178° |
| 2026-05-07 03:56 | 46.23519 | -122.71340 | 6999 ft | 123 kts | 178° |
| 2026-05-07 03:56 | 46.22674 | -122.71127 | 6997 ft | 123 kts | 178° |
| 2026-05-07 03:57 | 46.21838 | -122.70914 | 6991 ft | 120 kts | 178° |
| 2026-05-07 03:57 | 46.21023 | -122.70707 | 7000 ft | 119 kts | 179° |
| 2026-05-07 03:57 | 46.20206 | -122.70503 | 6993 ft | 119 kts | 178° |
| 2026-05-07 03:57 | 46.19402 | -122.70296 | 6987 ft | 116 kts | 179° |
| 2026-05-07 03:58 | 46.18597 | -122.70097 | 6990 ft | 119 kts | 179° |
| 2026-05-07 03:58 | 46.17764 | -122.69890 | 6997 ft | 123 kts | 179° |
| 2026-05-07 03:58 | 46.16915 | -122.69677 | 6997 ft | 124 kts | 179° |
| 2026-05-07 03:58 | 46.16067 | -122.69462 | 7003 ft | 123 kts | 179° |
| 2026-05-07 03:59 | 46.15218 | -122.69249 | 7002 ft | 124 kts | 179° |
| 2026-05-07 03:59 | 46.14366 | -122.69034 | 7000 ft | 124 kts | 179° |
| 2026-05-07 03:59 | 46.13518 | -122.68821 | 7000 ft | 124 kts | 179° |
| 2026-05-07 03:59 | 46.12662 | -122.68607 | 7001 ft | 125 kts | 179° |
| 2026-05-07 04:00 | 46.11805 | -122.68392 | 6999 ft | 125 kts | 179° |
| 2026-05-07 04:00 | 46.10952 | -122.68178 | 6997 ft | 124 kts | 179° |
| 2026-05-07 04:00 | 46.10098 | -122.67962 | 6990 ft | 124 kts | 179° |
| 2026-05-07 04:00 | 46.09259 | -122.67749 | 6992 ft | 122 kts | 179° |
| 2026-05-07 04:01 | 46.08430 | -122.67542 | 6986 ft | 121 kts | 179° |
| 2026-05-07 04:01 | 46.07602 | -122.67335 | 6987 ft | 121 kts | 178° |
| 2026-05-07 04:01 | 46.06777 | -122.67128 | 6984 ft | 120 kts | 179° |
| 2026-05-07 04:01 | 46.05952 | -122.66921 | 6988 ft | 120 kts | 179° |
| 2026-05-07 04:02 | 46.05143 | -122.66717 | 6974 ft | 119 kts | 179° |
| 2026-05-07 04:02 | 46.04327 | -122.66513 | 6981 ft | 120 kts | 179° |
| 2026-05-07 04:02 | 46.03499 | -122.66307 | 6982 ft | 121 kts | 179° |
| 2026-05-07 04:02 | 46.02673 | -122.66100 | 6986 ft | 121 kts | 179° |
| 2026-05-07 04:03 | 46.01835 | -122.65891 | 6992 ft | 123 kts | 179° |
| 2026-05-07 04:03 | 46.00991 | -122.65680 | 6995 ft | 122 kts | 179° |
| 2026-05-07 04:03 | 46.00150 | -122.65470 | 6996 ft | 123 kts | 179° |
| 2026-05-07 04:03 | 45.99300 | -122.65259 | 6994 ft | 125 kts | 179° |
| 2026-05-07 04:04 | 45.98444 | -122.65044 | 6989 ft | 125 kts | 179° |
| 2026-05-07 04:04 | 45.97592 | -122.64830 | 6990 ft | 124 kts | 179° |
| 2026-05-07 04:04 | 45.96739 | -122.64617 | 6994 ft | 124 kts | 179° |
| 2026-05-07 04:04 | 45.95890 | -122.64405 | 6988 ft | 123 kts | 179° |
| 2026-05-07 04:05 | 45.95055 | -122.64194 | 6975 ft | 121 kts | 180° |
| 2026-05-07 04:05 | 45.94239 | -122.63992 | 6960 ft | 120 kts | 179° |
| 2026-05-07 04:05 | 45.93412 | -122.63785 | 6968 ft | 121 kts | 179° |
| 2026-05-07 04:05 | 45.92579 | -122.63578 | 6964 ft | 122 kts | 179° |
| 2026-05-07 04:06 | 45.91736 | -122.63368 | 6967 ft | 123 kts | 178° |
| 2026-05-07 04:06 | 45.90895 | -122.63159 | 6971 ft | 123 kts | 178° |
| 2026-05-07 04:06 | 45.90051 | -122.62948 | 6966 ft | 123 kts | 178° |
| 2026-05-07 04:06 | 45.89215 | -122.62746 | 6981 ft | 120 kts | 179° |
| 2026-05-07 04:07 | 45.88393 | -122.62545 | 6990 ft | 119 kts | 179° |
| 2026-05-07 04:07 | 45.87575 | -122.62343 | 6986 ft | 120 kts | 179° |
| 2026-05-07 04:07 | 45.86749 | -122.62138 | 6982 ft | 121 kts | 179° |
| 2026-05-07 04:07 | 45.85916 | -122.61930 | 6988 ft | 122 kts | 178° |
| 2026-05-07 04:08 | 45.85080 | -122.61722 | 6990 ft | 122 kts | 178° |
| 2026-05-07 04:08 | 45.84245 | -122.61512 | 6991 ft | 122 kts | 178° |
| 2026-05-07 04:08 | 45.83419 | -122.61306 | 6993 ft | 122 kts | 178° |
| 2026-05-07 04:08 | 45.82583 | -122.61098 | 6995 ft | 122 kts | 178° |
| 2026-05-07 04:09 | 45.81748 | -122.60889 | 6993 ft | 122 kts | 178° |
| 2026-05-07 04:09 | 45.80914 | -122.60681 | 6994 ft | 121 kts | 178° |
| 2026-05-07 04:09 | 45.80081 | -122.60473 | 6994 ft | 121 kts | 178° |
| 2026-05-07 04:09 | 45.79247 | -122.60265 | 7005 ft | 121 kts | 178° |
| 2026-05-07 04:10 | 45.78415 | -122.60057 | 7007 ft | 121 kts | 178° |
| 2026-05-07 04:10 | 45.77583 | -122.59850 | 7003 ft | 121 kts | 178° |
| 2026-05-07 04:10 | 45.76752 | -122.59643 | 7006 ft | 121 kts | 178° |
| 2026-05-07 04:10 | 45.75922 | -122.59436 | 7007 ft | 121 kts | 178° |
| 2026-05-07 04:11 | 45.75090 | -122.59227 | 7006 ft | 122 kts | 176° |
| 2026-05-07 04:11 | 45.74322 | -122.58676 | 7008 ft | 127 kts | 147° |
| 2026-05-07 04:11 | 45.73620 | -122.57912 | 7000 ft | 127 kts | 149° |
| 2026-05-07 04:11 | 45.72905 | -122.57161 | 6882 ft | 127 kts | 149° |
| 2026-05-07 04:12 | 45.72209 | -122.56424 | 6761 ft | 125 kts | 148° |
| 2026-05-07 04:12 | 45.71513 | -122.55684 | 6641 ft | 124 kts | 148° |
| 2026-05-07 04:12 | 45.70822 | -122.54948 | 6511 ft | 123 kts | 148° |
| 2026-05-07 04:12 | 45.70136 | -122.54217 | 6382 ft | 122 kts | 149° |
| 2026-05-07 04:13 | 45.69455 | -122.53493 | 6254 ft | 122 kts | 148° |
| 2026-05-07 04:13 | 45.68778 | -122.52772 | 6111 ft | 121 kts | 149° |
| 2026-05-07 04:13 | 45.68099 | -122.52051 | 5982 ft | 121 kts | 149° |
| 2026-05-07 04:13 | 45.67426 | -122.51336 | 5857 ft | 120 kts | 148° |
| 2026-05-07 04:14 | 45.66758 | -122.50626 | 5735 ft | 119 kts | 148° |
| 2026-05-07 04:14 | 45.66095 | -122.49923 | 5607 ft | 117 kts | 149° |
| 2026-05-07 04:14 | 45.65444 | -122.49232 | 5477 ft | 115 kts | 149° |
| 2026-05-07 04:14 | 45.64782 | -122.48630 | 5352 ft | 112 kts | 149° |
| 2026-05-07 04:15 | 45.64183 | -122.47916 | 5227 ft | 112 kts | 145° |
| 2026-05-07 04:15 | 45.63594 | -122.47200 | 5100 ft | 111 kts | 145° |
| 2026-05-07 04:15 | 45.63015 | -122.46486 | 4994 ft | 109 kts | 144° |
| 2026-05-07 04:15 | 45.62446 | -122.45785 | 4999 ft | 111 kts | 144° |
| 2026-05-07 04:16 | 45.61854 | -122.45058 | 5001 ft | 114 kts | 144° |
| 2026-05-07 04:16 | 45.61284 | -122.44233 | 4995 ft | 118 kts | 126° |
| 2026-05-07 04:16 | 45.60867 | -122.43236 | 5000 ft | 119 kts | 124° |
| 2026-05-07 04:16 | 45.60437 | -122.42213 | 4998 ft | 121 kts | 124° |
| 2026-05-07 04:17 | 45.60003 | -122.41186 | 5002 ft | 121 kts | 124° |
| 2026-05-07 04:17 | 45.59564 | -122.40151 | 4942 ft | 121 kts | 125° |
| 2026-05-07 04:17 | 45.59143 | -122.39148 | 4799 ft | 115 kts | 125° |
| 2026-05-07 04:17 | 45.58739 | -122.38171 | 4668 ft | 114 kts | 125° |
| 2026-05-07 04:18 | 45.58340 | -122.37206 | 4534 ft | 112 kts | 125° |
| 2026-05-07 04:18 | 45.57945 | -122.36259 | 4399 ft | 110 kts | 125° |
| 2026-05-07 04:18 | 45.57553 | -122.35325 | 4270 ft | 109 kts | 125° |
| 2026-05-07 04:18 | 45.57158 | -122.34409 | 4138 ft | 106 kts | 135° |
| 2026-05-07 04:19 | 45.56534 | -122.34158 | 4022 ft | 94 kts | 204° |
| 2026-05-07 04:19 | 45.55929 | -122.34480 | 3897 ft | 95 kts | 204° |
| 2026-05-07 04:19 | 45.55308 | -122.34797 | 3773 ft | 95 kts | 205° |
| 2026-05-07 04:19 | 45.54685 | -122.35115 | 3653 ft | 95 kts | 204° |
| 2026-05-07 04:20 | 45.54061 | -122.35445 | 3527 ft | 95 kts | 205° |
| 2026-05-07 04:20 | 45.53440 | -122.35773 | 3402 ft | 96 kts | 205° |
| 2026-05-07 04:20 | 45.52820 | -122.36119 | 3279 ft | 95 kts | 216° |
| 2026-05-07 04:21 | 45.52489 | -122.37827 | 3029 ft | 90 kts | 265° |
| 2026-05-07 04:21 | 45.52402 | -122.38694 | 2895 ft | 88 kts | 265° |
| 2026-05-07 04:21 | 45.52308 | -122.39573 | 2777 ft | 92 kts | 265° |
| 2026-05-07 04:21 | 45.52213 | -122.40488 | 2663 ft | 93 kts | 270° |
| 2026-05-07 04:22 | 45.52424 | -122.41315 | 2570 ft | 90 kts | 298° |
| 2026-05-07 04:22 | 45.52679 | -122.42143 | 2468 ft | 92 kts | 302° |
| 2026-05-07 04:22 | 45.52994 | -122.42937 | 2344 ft | 92 kts | 300° |
| 2026-05-07 04:22 | 45.53306 | -122.43710 | 2213 ft | 90 kts | 302° |
| 2026-05-07 04:23 | 45.53600 | -122.44501 | 2073 ft | 89 kts | 301° |
| 2026-05-07 04:23 | 45.53899 | -122.45279 | 1928 ft | 90 kts | 304° |
| 2026-05-07 04:23 | 45.54210 | -122.46050 | 1811 ft | 90 kts | 298° |
| 2026-05-07 04:23 | 45.54508 | -122.46850 | 1683 ft | 92 kts | 303° |
| 2026-05-07 04:24 | 45.54844 | -122.47641 | 1578 ft | 94 kts | 298° |
| 2026-05-07 04:24 | 45.55145 | -122.48471 | 1439 ft | 92 kts | 303° |
| 2026-05-07 04:24 | 45.55460 | -122.49232 | 1344 ft | 87 kts | 302° |
| 2026-05-07 04:24 | 45.55749 | -122.49991 | 1225 ft | 87 kts | 300° |
| 2026-05-07 04:25 | 45.56043 | -122.50784 | 1088 ft | 92 kts | 303° |
| 2026-05-07 04:25 | 45.56368 | -122.51563 | 994 ft | 91 kts | 300° |
| 2026-05-07 04:25 | 45.56652 | -122.52362 | 875 ft | 87 kts | 302° |
| 2026-05-07 04:25 | 45.56938 | -122.53089 | 776 ft | 81 kts | 305° |
| 2026-05-07 04:26 | 45.57221 | -122.53783 | 631 ft | 84 kts | 306° |
| 2026-05-07 04:26 | 45.57517 | -122.54529 | 482 ft | 87 kts | 303° |
| 2026-05-07 04:26 | 45.57798 | -122.55251 | 355 ft | 80 kts | 303° |
| 2026-05-07 04:26 | 45.58048 | -122.55887 | 247 ft | 70 kts | 303° |
| 2026-05-07 04:27 | 45.58282 | -122.56490 | 134 ft | 71 kts | 304° |
| 2026-05-07 04:27 | 45.58516 | -122.57088 | 51 ft | 67 kts | 302° |
| 2026-05-07 04:27 | 45.58711 | -122.57586 | 35 ft | 46 kts | 306° |
| 2026-05-07 04:27 | 45.58845 | -122.57924 | 35 ft | 34 kts | 297° |
| 2026-05-07 04:28 | 45.58911 | -122.58166 | 35 ft | 15 kts | 246° |
| 2026-05-07 04:28 | 45.58849 | -122.58230 | 35 ft | 7 kts | 216° |
| 2026-05-07 04:28 | 45.58804 | -122.58269 | 35 ft | 7 kts | 206° |
| 2026-05-07 04:28 | 45.58792 | -122.58277 | 35 ft | 0 kts | 204° |
| 2026-05-07 04:29 | 45.58786 | -122.58266 | 35 ft | 5 kts | 62° |
| 2026-05-07 04:29 | 45.58825 | -122.58210 | 35 ft | 11 kts | 96° |
| 2026-05-07 04:29 | 45.58785 | -122.58096 | 35 ft | 15 kts | 119° |
| 2026-05-07 04:30 | 45.58730 | -122.57957 | 35 ft | 17 kts | 118° |
| 2026-05-07 04:30 | 45.58669 | -122.57840 | 35 ft | 12 kts | 188° |
| 2026-05-07 04:30 | 45.58607 | -122.57862 | 35 ft | 8 kts | 153° |
| 2026-05-07 04:30 | 45.58570 | -122.57808 | 35 ft | 7 kts | 168° |
| 2026-05-07 04:31 | 45.58555 | -122.57830 | 35 ft | 2 kts | 279° |
| 2026-05-07 04:31 | 45.58560 | -122.57842 | 35 ft | 4 kts | 298° |
| 2026-05-07 04:31 | 45.58562 | -122.57846 | 35 ft | 0 kts | 300° |
| 2026-05-07 04:38 | 45.58564 | -122.57851 | 35 ft | 4 kts | 308° |
| 2026-05-07 04:38 | 45.58596 | -122.57871 | 35 ft | 9 kts | 344° |
| 2026-05-07 04:38 | 45.58662 | -122.57840 | 35 ft | 12 kts | 38° |
| 2026-05-07 04:39 | 45.58642 | -122.57731 | 35 ft | 13 kts | 116° |
| 2026-05-07 04:39 | 45.58634 | -122.57640 | 35 ft | 0 kts | 45° |
| 2026-05-07 04:40 | 45.58671 | -122.57611 | 35 ft | 13 kts | 21° |
| 2026-05-07 04:40 | 45.58738 | -122.57650 | 35 ft | 10 kts | 300° |
| 2026-05-07 04:40 | 45.58817 | -122.57859 | 35 ft | 45 kts | 298° |
| 2026-05-07 04:41 | 45.59031 | -122.58419 | 67 ft | 77 kts | 300° |
| 2026-05-07 04:41 | 45.59275 | -122.59113 | 247 ft | 81 kts | 303° |
| 2026-05-07 04:41 | 45.59582 | -122.59803 | 416 ft | 82 kts | 304° |
| 2026-05-07 04:41 | 45.59849 | -122.60504 | 632 ft | 81 kts | 299° |
| 2026-05-07 04:42 | 45.60090 | -122.61235 | 846 ft | 81 kts | 297° |
| 2026-05-07 04:42 | 45.60182 | -122.62033 | 1036 ft | 86 kts | 258° |
| 2026-05-07 04:42 | 45.59782 | -122.62658 | 1253 ft | 90 kts | 207° |
| 2026-05-07 04:42 | 45.59167 | -122.62784 | 1505 ft | 89 kts | 186° |
| 2026-05-07 04:43 | 45.58514 | -122.62804 | 1636 ft | 99 kts | 184° |
| 2026-05-07 04:43 | 45.57836 | -122.62825 | 1882 ft | 92 kts | 183° |
| 2026-05-07 04:43 | 45.57191 | -122.62843 | 1992 ft | 97 kts | 185° |
| 2026-05-07 04:43 | 45.56481 | -122.62881 | 1995 ft | 107 kts | 184° |
| 2026-05-07 04:44 | 45.55750 | -122.63121 | 2016 ft | 110 kts | 206° |
| 2026-05-07 04:44 | 45.55025 | -122.63523 | 2010 ft | 112 kts | 202° |
| 2026-05-07 04:44 | 45.54291 | -122.63880 | 2045 ft | 108 kts | 201° |
| 2026-05-07 04:44 | 45.53631 | -122.64171 | 2369 ft | 91 kts | 200° |
| 2026-05-07 04:45 | 45.53029 | -122.64435 | 2538 ft | 92 kts | 200° |
| 2026-05-07 04:45 | 45.52429 | -122.64701 | 2723 ft | 91 kts | 200° |
| 2026-05-07 04:45 | 45.51822 | -122.64970 | 2902 ft | 91 kts | 200° |
| 2026-05-07 04:45 | 45.51196 | -122.65247 | 3001 ft | 101 kts | 200° |
| 2026-05-07 04:46 | 45.50488 | -122.65567 | 3009 ft | 109 kts | 200° |
| 2026-05-07 04:46 | 45.49766 | -122.65891 | 3009 ft | 109 kts | 200° |
| 2026-05-07 04:46 | 45.49038 | -122.66212 | 3000 ft | 110 kts | 200° |
| 2026-05-07 04:46 | 45.48306 | -122.66534 | 2997 ft | 110 kts | 200° |
| 2026-05-07 04:47 | 45.47571 | -122.66857 | 2997 ft | 111 kts | 200° |
| 2026-05-07 04:47 | 45.46838 | -122.67178 | 2995 ft | 110 kts | 199° |
| 2026-05-07 04:47 | 45.46110 | -122.67497 | 2993 ft | 110 kts | 199° |
| 2026-05-07 04:47 | 45.45381 | -122.67815 | 2992 ft | 109 kts | 199° |
| 2026-05-07 04:48 | 45.44653 | -122.68134 | 2994 ft | 110 kts | 199° |
| 2026-05-07 04:48 | 45.43921 | -122.68454 | 2995 ft | 110 kts | 199° |
| 2026-05-07 04:48 | 45.43198 | -122.68771 | 2996 ft | 110 kts | 199° |
| 2026-05-07 04:48 | 45.42465 | -122.69095 | 2904 ft | 111 kts | 200° |
| 2026-05-07 04:49 | 45.41740 | -122.69419 | 2783 ft | 107 kts | 199° |
| 2026-05-07 04:49 | 45.41050 | -122.69723 | 2645 ft | 102 kts | 199° |
| 2026-05-07 04:49 | 45.40373 | -122.70019 | 2512 ft | 102 kts | 199° |
| 2026-05-07 04:49 | 45.39693 | -122.70316 | 2381 ft | 102 kts | 199° |
| 2026-05-07 04:50 | 45.39015 | -122.70611 | 2257 ft | 101 kts | 198° |
| 2026-05-07 04:50 | 45.38345 | -122.70904 | 2126 ft | 100 kts | 198° |
| 2026-05-07 04:50 | 45.37676 | -122.71195 | 2005 ft | 100 kts | 198° |
| 2026-05-07 04:50 | 45.37012 | -122.71485 | 1889 ft | 100 kts | 198° |
| 2026-05-07 04:51 | 45.36345 | -122.71777 | 1763 ft | 100 kts | 198° |
| 2026-05-07 04:51 | 45.35681 | -122.72066 | 1635 ft | 99 kts | 198° |
| 2026-05-07 04:51 | 45.35021 | -122.72354 | 1493 ft | 99 kts | 198° |
| 2026-05-07 04:51 | 45.34360 | -122.72642 | 1351 ft | 99 kts | 198° |
| 2026-05-07 04:52 | 45.33697 | -122.72931 | 1208 ft | 100 kts | 198° |
| 2026-05-07 04:52 | 45.33041 | -122.73209 | 1200 ft | 101 kts | 198° |
| 2026-05-07 04:52 | 45.32352 | -122.73504 | 1213 ft | 106 kts | 198° |
| 2026-05-07 04:52 | 45.31639 | -122.73815 | 1204 ft | 108 kts | 198° |
| 2026-05-07 04:53 | 45.30928 | -122.74120 | 1211 ft | 108 kts | 194° |
| 2026-05-07 04:53 | 45.30178 | -122.74248 | 1201 ft | 108 kts | 186° |
| 2026-05-07 04:53 | 45.29424 | -122.74359 | 1211 ft | 109 kts | 186° |
| 2026-05-07 04:53 | 45.28665 | -122.74468 | 1208 ft | 110 kts | 186° |
| 2026-05-07 04:54 | 45.27905 | -122.74578 | 1206 ft | 110 kts | 186° |
| 2026-05-07 04:54 | 45.27145 | -122.74688 | 1211 ft | 109 kts | 187° |
| 2026-05-07 04:54 | 45.26388 | -122.74799 | 1207 ft | 110 kts | 187° |
| 2026-05-07 04:54 | 45.25623 | -122.74911 | 1210 ft | 111 kts | 187° |
| 2026-05-07 04:55 | 45.24854 | -122.75024 | 1210 ft | 111 kts | 186° |
| 2026-05-07 04:55 | 45.24090 | -122.75134 | 1207 ft | 110 kts | 186° |
| 2026-05-07 04:55 | 45.23336 | -122.75243 | 1185 ft | 106 kts | 187° |
| 2026-05-07 04:55 | 45.22645 | -122.75364 | 1083 ft | 98 kts | 188° |
| 2026-05-07 04:56 | 45.22065 | -122.75788 | 986 ft | 94 kts | 237° |
| 2026-05-07 04:56 | 45.21984 | -122.76639 | 875 ft | 84 kts | 285° |
| 2026-05-07 04:56 | 45.22350 | -122.77168 | 752 ft | 76 kts | 341° |
| 2026-05-07 04:56 | 45.22838 | -122.77323 | 594 ft | 72 kts | 360° |
| 2026-05-07 04:57 | 45.23334 | -122.77249 | 401 ft | 71 kts | 8° |
| 2026-05-07 04:57 | 45.23835 | -122.77160 | 276 ft | 74 kts | 8° |
| 2026-05-07 04:57 | 45.24337 | -122.77073 | 203 ft | 65 kts | 7° |
| 2026-05-07 04:57 | 45.24663 | -122.77014 | 202 ft | 19 kts | 4° |
| 2026-05-07 04:58 | 45.24685 | -122.76913 | 202 ft | 8 kts | 95° |
| 2026-05-07 04:58 | 45.24685 | -122.76903 | 202 ft | 0 kts | 94° |
| 2026-05-07 04:58 | 45.24714 | -122.76888 | 204 ft | 11 kts | 7° |
| 2026-05-07 04:58 | 45.24803 | -122.76871 | 202 ft | 14 kts | 6° |
| 2026-05-07 04:59 | 45.24897 | -122.76856 | 203 ft | 13 kts | 8° |
| 2026-05-07 04:59 | 45.24984 | -122.76840 | 203 ft | 7 kts | 8° |
| 2026-05-07 04:59 | 45.25042 | -122.76830 | 207 ft | 10 kts | 19° |
| 2026-05-07 04:59 | 45.25049 | -122.76746 | 203 ft | 9 kts | 91° |
| 2026-05-07 05:00 | 45.25047 | -122.76662 | 203 ft | 8 kts | 91° |
| 2026-05-07 05:00 | 45.25047 | -122.76649 | 203 ft | 0 kts | 91° |